Time;durP1;ratioP1;P1;durP2;ratioP2;P2;SDS_P1;SDS_P2;PMS_P1;PMS_P2;Temp;Humidity;BMP_temperature;BMP_pressure;BME280_temperature;BME280_humidity;BME280_pressure;Samples;Min_cycle;Max_cycle;Signal;HPM_P1;HPM_P2
2021/11/17 02:27:10;;;;;;;46.90;14.27;;;5.90;97.30;;;;;;4916059;29;20472;-80
2021/11/17 02:29:38;;;;;;;44.93;14.40;;;5.90;97.30;;;;;;4991877;28;20413;-79
2021/11/17 02:32:04;;;;;;;41.27;14.50;;;5.90;97.30;;;;;;5010257;28;20425;-79
2021/11/17 02:34:43;;;;;;;46.37;14.70;;;5.90;97.30;;;;;;5009981;28;20421;-80
2021/11/17 02:37:14;;;;;;;41.13;13.60;;;6.00;97.30;;;;;;5010303;28;20178;-80
2021/11/17 02:39:52;;;;;;;34.50;14.30;;;5.90;97.30;;;;;;5009645;28;20496;-80
2021/11/17 02:42:40;;;;;;;43.07;17.20;;;5.90;97.30;;;;;;4977441;28;20425;-81
2021/11/17 02:45:15;;;;;;;43.10;14.57;;;5.90;97.30;;;;;;4977740;28;20823;-79
2021/11/17 02:48:12;;;;;;;51.17;15.23;;;5.90;97.30;;;;;;5009468;28;20424;-80
2021/11/17 02:50:55;;;;;;;38.57;13.97;;;6.00;97.30;;;;;;4977246;28;20410;-79
2021/11/17 02:53:24;;;;;;;42.97;15.53;;;6.00;97.30;;;;;;4977119;28;20500;-80
2021/11/17 02:56:27;;;;;;;38.20;13.70;;;6.00;97.30;;;;;;5009682;28;20459;-80
2021/11/17 02:58:58;;;;;;;37.87;13.60;;;6.00;97.30;;;;;;4994549;28;20506;-79
2021/11/17 03:01:42;;;;;;;41.57;14.50;;;6.00;97.30;;;;;;5024984;28;20519;-80
2021/11/17 03:04:18;;;;;;;44.33;14.70;;;6.00;97.30;;;;;;5009330;28;20425;-79
2021/11/17 03:07:14;;;;;;;64.27;17.87;;;6.00;97.30;;;;;;4992801;28;20492;-80
2021/11/17 03:09:39;;;;;;;47.03;15.20;;;6.00;97.30;;;;;;4995400;28;20428;-79
2021/11/17 03:12:24;;;;;;;60.23;16.03;;;6.00;97.30;;;;;;5009413;28;20484;-79
2021/11/17 03:15:04;;;;;;;39.40;13.43;;;6.00;97.30;;;;;;4976622;28;20368;-79
2021/11/17 03:17:42;;;;;;;47.70;16.33;;;6.00;97.30;;;;;;5009163;28;20456;-79
2021/11/17 03:20:17;;;;;;;43.50;14.70;;;6.00;97.30;;;;;;4976524;28;20619;-79
2021/11/17 03:23:01;;;;;;;43.43;15.87;;;6.00;97.30;;;;;;4992914;28;20422;-80
2021/11/17 03:25:37;;;;;;;56.37;16.13;;;6.00;97.30;;;;;;5008356;28;20994;-79
2021/11/17 03:28:20;;;;;;;41.53;14.73;;;6.00;97.30;;;;;;4991448;28;20944;-79
2021/11/17 03:31:07;;;;;;;45.70;15.03;;;6.00;97.30;;;;;;5007243;28;20934;-79
2021/11/17 03:33:35;;;;;;;37.23;13.97;;;5.90;97.30;;;;;;5006930;28;20499;-79
2021/11/17 03:36:31;;;;;;;40.20;16.17;;;5.90;97.30;;;;;;5007243;28;20567;-80
2021/11/17 03:39:06;;;;;;;33.00;11.33;;;5.90;97.30;;;;;;5007282;28;20540;-80
2021/11/17 03:41:47;;;;;;;42.63;14.40;;;5.90;97.30;;;;;;4990983;28;20424;-80
2021/11/17 03:44:15;;;;;;;44.47;13.77;;;5.90;97.30;;;;;;4975831;28;20801;-81
2021/11/17 03:47:05;;;;;;;42.03;13.10;;;5.90;97.30;;;;;;5008659;28;20444;-79
2021/11/17 03:49:49;;;;;;;37.27;12.37;;;5.90;97.30;;;;;;4975874;28;20468;-80
2021/11/17 03:52:46;;;;;;;36.77;11.60;;;6.00;97.30;;;;;;4992343;28;20479;-79
2021/11/17 03:55:24;;;;;;;36.63;12.27;;;6.00;97.30;;;;;;4976147;28;20447;-80
2021/11/17 03:58:08;;;;;;;33.03;11.27;;;6.00;97.30;;;;;;4993436;28;20401;-80
2021/11/17 04:01:01;;;;;;;30.80;11.87;;;6.00;97.30;;;;;;5008605;28;20417;-79
2021/11/17 04:03:26;;;;;;;37.77;10.57;;;6.00;97.30;;;;;;5028181;28;20416;-80
2021/11/17 04:06:06;;;;;;;30.77;11.50;;;6.00;97.30;;;;;;5027767;28;20482;-80
2021/11/17 04:08:40;;;;;;;29.80;10.83;;;6.00;97.30;;;;;;4995004;28;20200;-80
2021/11/17 04:11:18;;;;;;;35.40;11.53;;;6.00;97.30;;;;;;5008529;28;20452;-79
2021/11/17 04:14:11;;;;;;;28.27;10.53;;;6.00;97.30;;;;;;5008027;28;20424;-80
2021/11/17 04:17:01;;;;;;;31.07;9.57;;;6.00;97.30;;;;;;5008015;28;20445;-79
2021/11/17 04:19:41;;;;;;;24.70;8.47;;;6.00;97.30;;;;;;5008096;28;20468;-81
2021/11/17 04:22:34;;;;;;;31.63;10.17;;;6.00;97.30;;;;;;5008357;28;20423;-79
2021/11/17 04:25:37;;;;;;;23.00;9.17;;;6.00;97.30;;;;;;5007932;28;20447;-79
2021/11/17 04:28:06;;;;;;;30.13;10.20;;;6.00;97.30;;;;;;5007899;28;20413;-79
2021/11/17 04:30:43;;;;;;;35.57;10.20;;;6.00;97.30;;;;;;5007790;28;20498;-80
2021/11/17 04:33:11;;;;;;;25.20;8.83;;;6.00;97.30;;;;;;5008350;28;20425;-79
2021/11/17 04:35:52;;;;;;;32.50;10.43;;;6.00;97.30;;;;;;5007991;28;20448;-79
2021/11/17 04:38:17;;;;;;;27.87;9.73;;;6.00;97.30;;;;;;5008241;28;20921;-79
2021/11/17 04:41:02;;;;;;;27.80;9.97;;;6.00;97.30;;;;;;5007913;28;20440;-79
2021/11/17 04:43:49;;;;;;;31.23;10.83;;;6.00;97.30;;;;;;4992095;28;20170;-79
2021/11/17 04:46:14;;;;;;;28.80;8.40;;;5.90;97.30;;;;;;4990355;28;20444;-79
2021/11/17 04:49:08;;;;;;;29.33;10.37;;;5.90;97.30;;;;;;5008010;28;20424;-79
2021/11/17 04:52:23;;;;;;;30.63;8.97;;;6.00;97.30;;;;;;5007563;28;20182;-79
2021/11/17 04:55:09;;;;;;;25.23;8.10;;;5.90;97.30;;;;;;4975273;28;20946;-79
2021/11/17 04:57:35;;;;;;;31.27;9.17;;;5.90;97.30;;;;;;4992726;28;20416;-80
2021/11/17 05:00:31;;;;;;;29.53;10.33;;;5.90;97.30;;;;;;5007591;28;20461;-79
2021/11/17 05:03:15;;;;;;;26.10;8.80;;;5.90;97.30;;;;;;4993531;28;20185;-79
2021/11/17 05:06:05;;;;;;;28.33;9.60;;;5.80;97.30;;;;;;5010592;28;20463;-79
2021/11/17 05:08:37;;;;;;;37.73;9.80;;;5.80;97.30;;;;;;4994553;28;20424;-79
2021/11/17 05:11:40;;;;;;;28.97;10.73;;;5.80;97.30;;;;;;5010907;28;20412;-79
2021/11/17 05:14:43;;;;;;;31.60;9.60;;;5.80;97.30;;;;;;4998036;28;20399;-79
2021/11/17 05:17:45;;;;;;;34.90;10.13;;;5.80;97.30;;;;;;5011086;28;20428;-79
2021/11/17 05:20:49;;;;;;;37.07;10.47;;;5.80;97.30;;;;;;5011321;28;20860;-79
2021/11/17 05:23:23;;;;;;;29.13;9.80;;;5.80;97.30;;;;;;4981155;28;20510;-79
2021/11/17 05:26:17;;;;;;;29.90;10.10;;;5.80;97.30;;;;;;5012223;28;20447;-79
2021/11/17 05:29:24;;;;;;;32.10;10.50;;;5.70;97.30;;;;;;5010789;28;20474;-79
2021/11/17 05:31:57;;;;;;;27.10;10.47;;;5.70;97.30;;;;;;4968376;28;20995;-80
2021/11/17 05:35:01;;;;;;;33.40;11.10;;;5.70;97.30;;;;;;5010859;28;20938;-79
2021/11/17 05:37:45;;;;;;;34.17;10.00;;;5.70;97.30;;;;;;4976949;28;20430;-79
2021/11/17 05:40:28;;;;;;;37.63;11.53;;;5.70;97.30;;;;;;5010367;28;20460;-80
2021/11/17 05:43:09;;;;;;;32.63;9.47;;;5.70;97.30;;;;;;5011043;28;20438;-79
2021/11/17 05:46:02;;;;;;;32.33;11.57;;;5.70;97.30;;;;;;5010233;28;20435;-79
2021/11/17 05:48:43;;;;;;;28.53;9.07;;;5.60;97.30;;;;;;4979403;28;20940;-80
2021/11/17 05:51:32;;;;;;;33.60;11.00;;;5.70;97.30;;;;;;5011714;28;20408;-79
2021/11/17 05:54:12;;;;;;;29.50;10.13;;;5.60;97.30;;;;;;4980488;28;20435;-79
2021/11/17 05:56:44;;;;;;;31.87;10.17;;;5.60;97.30;;;;;;4997851;28;20513;-80
2021/11/17 05:59:37;;;;;;;36.93;11.10;;;5.60;97.30;;;;;;5014066;28;20460;-79
2021/11/17 06:02:12;;;;;;;33.57;11.03;;;5.60;97.30;;;;;;5010421;28;20519;-79
2021/11/17 06:04:37;;;;;;;35.80;9.77;;;5.60;97.30;;;;;;4995606;28;20405;-79
2021/11/17 06:07:02;;;;;;;38.70;12.63;;;5.60;97.30;;;;;;4994270;28;20471;-80
2021/11/17 06:09:28;;;;;;;35.93;11.47;;;5.60;97.30;;;;;;4994192;28;20194;-79
2021/11/17 06:11:59;;;;;;;30.60;10.17;;;5.50;97.30;;;;;;4995186;28;20185;-78
2021/11/17 06:14:30;;;;;;;31.80;10.57;;;5.50;97.30;;;;;;5010390;28;20703;-79
2021/11/17 06:17:09;;;;;;;32.57;9.80;;;5.50;97.30;;;;;;5010892;28;20503;-80
2021/11/17 06:19:39;;;;;;;23.27;7.90;;;5.50;97.30;;;;;;5030264;28;20499;-79
2021/11/17 06:22:06;;;;;;;23.83;8.07;;;5.50;97.30;;;;;;5030014;28;20502;-79
2021/11/17 06:24:34;;;;;;;29.87;9.20;;;5.50;97.30;;;;;;5030022;28;20416;-80
2021/11/17 06:27:03;;;;;;;27.53;9.43;;;5.40;97.30;;;;;;5030124;28;20408;-79
2021/11/17 06:29:33;;;;;;;18.80;7.63;;;5.40;97.30;;;;;;5029977;28;20579;-79
2021/11/17 06:32:00;;;;;;;25.67;8.60;;;5.40;97.30;;;;;;5029668;28;20791;-79
2021/11/17 06:34:36;;;;;;;23.40;8.97;;;5.40;97.30;;;;;;5030074;28;20840;-79
2021/11/17 06:37:05;;;;;;;26.37;9.10;;;5.40;97.30;;;;;;5029552;28;20427;-79
2021/11/17 06:39:33;;;;;;;29.13;8.93;;;5.40;97.30;;;;;;5029399;28;20456;-81
2021/11/17 06:42:00;;;;;;;21.63;8.60;;;5.40;97.30;;;;;;5029210;28;20455;-79
2021/11/17 06:44:26;;;;;;;24.87;7.77;;;5.40;97.30;;;;;;5029339;28;20451;-79
2021/11/17 06:46:52;;;;;;;31.43;8.90;;;5.40;97.30;;;;;;5029316;28;20456;-79
2021/11/17 06:49:19;;;;;;;21.53;9.10;;;5.40;97.30;;;;;;5014215;28;20228;-79
2021/11/17 06:51:45;;;;;;;25.10;9.43;;;5.40;97.30;;;;;;5029026;28;20782;-79
2021/11/17 06:54:10;;;;;;;23.13;8.03;;;5.40;97.30;;;;;;5029315;28;20507;-80
2021/11/17 06:56:36;;;;;;;20.17;8.37;;;5.40;97.30;;;;;;5029175;28;20199;-79
2021/11/17 06:59:02;;;;;;;28.33;8.57;;;5.40;97.30;;;;;;5026998;28;20194;-79
2021/11/17 07:01:28;;;;;;;30.77;9.33;;;5.40;97.30;;;;;;5010029;28;20184;-79
2021/11/17 07:03:54;;;;;;;23.37;8.07;;;5.40;97.30;;;;;;5020262;28;20828;-79
2021/11/17 07:06:20;;;;;;;34.47;9.13;;;5.40;97.30;;;;;;5020311;28;20455;-79
2021/11/17 07:08:46;;;;;;;19.23;7.70;;;5.40;97.30;;;;;;5023025;28;20170;-81
2021/11/17 07:11:11;;;;;;;23.67;8.03;;;5.40;97.30;;;;;;5023144;28;20200;-80
2021/11/17 07:13:37;;;;;;;21.37;8.40;;;5.40;97.30;;;;;;5017255;28;20177;-78
2021/11/17 07:16:04;;;;;;;19.47;7.10;;;5.40;97.30;;;;;;5020828;28;20229;-79
2021/11/17 07:18:30;;;;;;;23.87;7.60;;;5.40;97.30;;;;;;5018383;28;20862;-79
2021/11/17 07:20:55;;;;;;;22.20;7.87;;;5.40;97.30;;;;;;5019925;28;20785;-79
2021/11/17 07:23:22;;;;;;;17.20;6.83;;;5.40;97.30;;;;;;5005803;28;20405;-79
2021/11/17 07:25:48;;;;;;;18.50;8.00;;;5.40;97.30;;;;;;5018340;28;20219;-78
2021/11/17 07:28:13;;;;;;;24.87;7.30;;;5.40;97.30;;;;;;5020545;28;20416;-79
2021/11/17 07:30:41;;;;;;;19.80;7.70;;;5.40;97.30;;;;;;5020717;28;20201;-82
2021/11/17 07:33:07;;;;;;;23.90;7.23;;;5.40;97.30;;;;;;5019545;28;20180;-80
2021/11/17 07:35:36;;;;;;;18.77;7.30;;;5.40;97.30;;;;;;5021365;28;20440;-81
2021/11/17 07:38:04;;;;;;;18.87;7.03;;;5.40;97.30;;;;;;5018044;28;20420;-79
2021/11/17 07:40:36;;;;;;;24.43;8.13;;;5.40;97.30;;;;;;5018428;28;20412;-79
2021/11/17 07:43:05;;;;;;;17.83;6.60;;;5.40;97.30;;;;;;5000626;28;20409;-81
2021/11/17 07:45:32;;;;;;;18.53;6.37;;;5.40;97.30;;;;;;5019699;28;20476;-79
2021/11/17 07:47:58;;;;;;;20.77;6.00;;;5.40;97.30;;;;;;5016769;28;20440;-81
2021/11/17 07:50:24;;;;;;;12.73;5.60;;;5.40;97.30;;;;;;5024130;28;20428;-79
2021/11/17 07:52:50;;;;;;;21.87;6.67;;;5.40;97.30;;;;;;5024887;28;20487;-80
2021/11/17 07:55:18;;;;;;;16.53;6.70;;;5.40;97.30;;;;;;5006589;28;20218;-79
2021/11/17 07:57:46;;;;;;;14.43;5.57;;;5.40;97.30;;;;;;5017126;28;20413;-80
2021/11/17 08:00:16;;;;;;;19.90;6.80;;;5.40;97.30;;;;;;5020495;28;20451;-80
2021/11/17 08:02:42;;;;;;;14.57;5.60;;;5.50;97.30;;;;;;5024930;28;20420;-79
2021/11/17 08:05:09;;;;;;;16.47;6.37;;;5.50;97.30;;;;;;5025257;28;20436;-79
2021/11/17 08:07:36;;;;;;;14.80;5.57;;;5.50;97.30;;;;;;5019390;28;20527;-80
2021/11/17 08:10:03;;;;;;;15.17;5.93;;;5.50;97.30;;;;;;5023886;28;20440;-80
2021/11/17 08:12:31;;;;;;;17.07;6.10;;;5.50;97.30;;;;;;5005238;28;20950;-80
2021/11/17 08:14:57;;;;;;;16.50;5.60;;;5.50;97.30;;;;;;5011374;28;20437;-79
2021/11/17 08:17:23;;;;;;;15.80;6.20;;;5.50;97.30;;;;;;5008308;28;20426;-79
2021/11/17 08:19:49;;;;;;;15.53;6.10;;;5.60;97.30;;;;;;5017782;28;20468;-80
2021/11/17 08:22:16;;;;;;;12.50;5.07;;;5.60;97.30;;;;;;5023117;28;20408;-80
2021/11/17 08:24:42;;;;;;;13.83;6.23;;;5.60;97.30;;;;;;5018083;28;20812;-79
2021/11/17 08:27:13;;;;;;;15.07;7.30;;;5.60;97.30;;;;;;5018983;28;20405;-80
2021/11/17 08:29:39;;;;;;;18.50;6.87;;;5.60;97.30;;;;;;5021940;28;20429;-80
2021/11/17 08:32:06;;;;;;;13.90;5.10;;;5.60;97.30;;;;;;5018422;28;20483;-80
2021/11/17 08:34:31;;;;;;;17.17;6.70;;;5.60;97.30;;;;;;5020736;28;20182;-79
2021/11/17 08:36:57;;;;;;;13.47;5.60;;;5.50;97.30;;;;;;5018426;28;20424;-80
2021/11/17 08:39:24;;;;;;;13.20;5.77;;;5.60;97.30;;;;;;4994383;28;20568;-80
2021/11/17 08:41:49;;;;;;;13.37;6.17;;;5.60;97.30;;;;;;4993537;28;20307;-80
2021/11/17 08:44:15;;;;;;;16.00;5.50;;;5.60;97.30;;;;;;4994958;28;20872;-80
2021/11/17 08:46:41;;;;;;;14.87;6.43;;;5.60;97.30;;;;;;4994794;28;20221;-79
2021/11/17 08:49:07;;;;;;;15.13;6.40;;;5.60;97.30;;;;;;4994129;28;20419;-80
2021/11/17 08:51:33;;;;;;;16.83;6.80;;;5.60;97.30;;;;;;4994380;28;20173;-81
2021/11/17 08:54:00;;;;;;;17.20;7.60;;;5.60;97.30;;;;;;4993670;28;20190;-81
2021/11/17 08:56:27;;;;;;;17.77;7.67;;;5.50;97.30;;;;;;4993516;28;20472;-80
2021/11/17 08:58:53;;;;;;;22.77;8.73;;;5.50;97.30;;;;;;4996441;28;20460;-80
2021/11/17 09:01:20;;;;;;;18.20;7.40;;;5.50;97.30;;;;;;5029343;28;20957;-81
2021/11/17 09:03:46;;;;;;;15.97;6.17;;;5.50;97.30;;;;;;5013125;28;20188;-81
2021/11/17 09:06:13;;;;;;;15.67;5.47;;;5.50;97.30;;;;;;5019356;28;20444;-81
2021/11/17 09:08:39;;;;;;;9.60;4.50;;;5.50;97.30;;;;;;5019711;28;20555;-81
2021/11/17 09:11:09;;;;;;;10.13;4.30;;;5.40;97.30;;;;;;5032046;28;20416;-80
2021/11/17 09:13:35;;;;;;;7.80;4.20;;;5.40;97.30;;;;;;5030676;28;20423;-79
2021/11/17 09:16:01;;;;;;;9.47;4.50;;;5.30;97.30;;;;;;5028578;28;20811;-80
2021/11/17 09:18:30;;;;;;;5.83;3.50;;;5.30;97.30;;;;;;5029972;28;20355;-80
2021/11/17 09:20:57;;;;;;;9.10;3.83;;;5.30;97.30;;;;;;5024335;28;20525;-80
2021/11/17 09:23:26;;;;;;;9.03;4.00;;;5.30;97.30;;;;;;5021074;28;20853;-79
2021/11/17 09:25:53;;;;;;;8.43;4.40;;;5.30;97.30;;;;;;5018123;28;20436;-80
2021/11/17 09:28:20;;;;;;;6.97;3.90;;;5.40;97.30;;;;;;5020958;28;20942;-80
2021/11/17 09:30:46;;;;;;;8.20;3.77;;;5.40;97.30;;;;;;5024356;28;21046;-80
2021/11/17 09:33:14;;;;;;;8.90;3.57;;;5.40;97.30;;;;;;5013800;28;21077;-81
2021/11/17 09:35:41;;;;;;;8.20;3.80;;;5.50;97.30;;;;;;5013114;28;20444;-80
2021/11/17 09:38:09;;;;;;;7.30;3.20;;;5.50;97.30;;;;;;5017309;28;20842;-81
2021/11/17 09:40:47;;;;;;;7.93;3.90;;;5.50;97.30;;;;;;5012797;28;20417;-79
2021/11/17 09:43:17;;;;;;;8.63;3.87;;;5.50;97.30;;;;;;5001366;28;20409;-80
2021/11/17 09:45:46;;;;;;;5.90;3.40;;;5.60;97.30;;;;;;5028664;28;20447;-79
2021/11/17 09:48:18;;;;;;;7.70;3.90;;;5.60;97.30;;;;;;5031222;28;20424;-80
2021/11/17 09:50:49;;;;;;;7.70;4.00;;;5.60;97.30;;;;;;5021382;28;20508;-80
2021/11/17 09:53:34;;;;;;;8.00;3.67;;;5.60;97.30;;;;;;4998274;28;20402;-79
2021/11/17 09:56:07;;;;;;;6.93;3.67;;;5.60;97.30;;;;;;5011858;28;20789;-80
2021/11/17 09:58:41;;;;;;;6.63;4.10;;;5.60;97.30;;;;;;5011288;28;20448;-82
2021/11/17 10:01:19;;;;;;;6.80;3.07;;;5.60;97.30;;;;;;5009762;28;20430;-80
2021/11/17 10:03:52;;;;;;;6.10;4.03;;;5.50;97.30;;;;;;5032220;28;20779;-79
2021/11/17 10:07:14;;;;;;;8.13;3.77;;;5.50;97.30;;;;;;5033638;28;20460;-81
2021/11/17 10:13:12;;;;;;;8.20;3.70;;;5.60;97.30;;;;;;4995995;28;20404;-79
2021/11/17 10:15:41;;;;;;;8.97;3.43;;;5.60;97.30;;;;;;5027706;28;20477;-79
2021/11/17 10:18:09;;;;;;;6.53;3.40;;;5.60;97.30;;;;;;5029574;28;20420;-81
2021/11/17 10:20:58;;;;;;;7.90;3.67;;;5.60;97.30;;;;;;5029102;28;20874;-79
2021/11/17 10:23:32;;;;;;;7.00;3.60;;;5.60;97.30;;;;;;5027848;28;20424;-79
2021/11/17 10:26:04;;;;;;;5.50;3.30;;;5.60;97.30;;;;;;5027806;28;20803;-80
2021/11/17 10:28:40;;;;;;;7.30;3.13;;;5.60;97.30;;;;;;5029238;28;20448;-80
2021/11/17 10:31:15;;;;;;;5.53;3.33;;;5.60;97.30;;;;;;5027808;28;20423;-79
2021/11/17 10:34:20;;;;;;;4.70;3.03;;;5.60;97.30;;;;;;5028997;28;20419;-79
2021/11/17 10:37:07;;;;;;;6.53;3.37;;;5.60;97.30;;;;;;5030654;28;20439;-79
2021/11/17 10:39:39;;;;;;;5.77;3.13;;;5.60;97.30;;;;;;5029338;28;20468;-79
2021/11/17 10:42:24;;;;;;;8.67;4.00;;;5.50;97.30;;;;;;5029281;28;20499;-79
2021/11/17 10:44:59;;;;;;;10.13;3.17;;;5.50;97.30;;;;;;5030147;28;20542;-79
2021/11/17 10:47:27;;;;;;;12.93;3.87;;;5.50;97.30;;;;;;5030991;28;20450;-80
2021/11/17 10:50:13;;;;;;;4.70;2.83;;;5.50;97.30;;;;;;5030836;28;20436;-80
2021/11/17 10:52:57;;;;;;;5.93;3.43;;;5.50;97.30;;;;;;5030486;28;20459;-80
2021/11/17 10:55:29;;;;;;;6.03;2.80;;;5.50;97.30;;;;;;5030634;28;20440;-79
2021/11/17 10:57:55;;;;;;;8.93;3.47;;;5.60;97.30;;;;;;5030123;28;20432;-79
2021/11/17 11:00:43;;;;;;;6.50;3.30;;;5.60;97.30;;;;;;5008165;28;20470;-80
2021/11/17 11:03:12;;;;;;;5.77;3.50;;;5.60;97.30;;;;;;5030742;28;20846;-79
2021/11/17 11:05:58;;;;;;;5.57;3.13;;;5.60;97.30;;;;;;5027427;28;20578;-79
2021/11/17 11:08:54;;;;;;;6.93;3.83;;;5.60;97.30;;;;;;5030455;28;20435;-79
2021/11/17 11:11:20;;;;;;;6.10;3.50;;;5.60;97.30;;;;;;5014137;28;20412;-79
2021/11/17 11:13:52;;;;;;;6.83;4.03;;;5.60;97.30;;;;;;5030753;28;20420;-79
2021/11/17 11:16:23;;;;;;;7.40;3.90;;;5.60;97.30;;;;;;5014398;28;20972;-79
2021/11/17 11:18:54;;;;;;;4.77;3.07;;;5.60;97.30;;;;;;5029351;28;20475;-78
2021/11/17 11:21:58;;;;;;;7.53;4.17;;;5.60;97.30;;;;;;5029347;28;20415;-79
2021/11/17 11:24:42;;;;;;;7.17;3.90;;;5.70;97.30;;;;;;5029052;28;20415;-79
2021/11/17 11:27:10;;;;;;;6.73;3.37;;;5.70;97.30;;;;;;5030214;28;20405;-81
2021/11/17 11:29:39;;;;;;;8.20;4.40;;;5.80;97.30;;;;;;5032465;28;20420;-80
2021/11/17 11:32:10;;;;;;;8.70;3.93;;;5.80;97.30;;;;;;5017150;28;20423;-81
2021/11/17 11:34:58;;;;;;;9.53;3.80;;;5.80;97.30;;;;;;5032175;28;20415;-81
2021/11/17 11:37:23;;;;;;;7.40;3.93;;;5.90;97.30;;;;;;5032598;28;20419;-81
2021/11/17 11:39:52;;;;;;;8.20;4.50;;;5.90;97.30;;;;;;5031599;28;20474;-81
2021/11/17 11:42:25;;;;;;;8.77;3.97;;;6.00;97.30;;;;;;5032202;28;20180;-81
2021/11/17 11:45:09;;;;;;;7.00;3.43;;;6.00;97.30;;;;;;5032252;28;20454;-81
2021/11/17 11:47:58;;;;;;;7.53;3.70;;;6.00;97.30;;;;;;5031630;28;20443;-82
2021/11/17 11:50:30;;;;;;;11.80;6.17;;;6.00;97.30;;;;;;5032457;28;20416;-82
2021/11/17 11:53:32;;;;;;;6.67;3.80;;;6.00;97.30;;;;;;5031674;28;20455;-82
2021/11/17 11:56:14;;;;;;;6.47;3.00;;;6.00;97.30;;;;;;5031007;28;20435;-82
2021/11/17 11:58:40;;;;;;;6.30;3.73;;;6.00;97.30;;;;;;5031675;28;20450;-82
2021/11/17 12:01:11;;;;;;;7.80;4.13;;;6.00;97.30;;;;;;5032046;28;20422;-82
2021/11/17 12:03:47;;;;;;;6.30;3.70;;;6.00;97.30;;;;;;5031785;28;20404;-81
2021/11/17 12:06:18;;;;;;;6.97;3.60;;;6.10;97.30;;;;;;5031222;28;20459;-82
2021/11/17 12:08:48;;;;;;;6.13;3.07;;;6.00;97.30;;;;;;5016374;28;20413;-82
2021/11/17 12:11:17;;;;;;;7.57;4.33;;;6.00;97.30;;;;;;5030282;28;20428;-82
2021/11/17 12:14:23;;;;;;;7.03;3.40;;;6.00;97.30;;;;;;5030236;28;20799;-82
2021/11/17 12:16:51;;;;;;;8.03;3.00;;;6.00;97.30;;;;;;5029373;28;20821;-81
2021/11/17 12:19:26;;;;;;;6.37;3.80;;;6.00;97.30;;;;;;5031788;28;20475;-82
2021/11/17 12:21:55;;;;;;;8.00;3.43;;;6.10;97.30;;;;;;5031609;28;20423;-81
2021/11/17 12:24:27;;;;;;;10.40;4.10;;;6.10;97.30;;;;;;5031337;28;20792;-80
2021/11/17 12:27:05;;;;;;;10.60;4.40;;;6.10;97.30;;;;;;5031386;28;20455;-80
2021/11/17 12:29:59;;;;;;;6.13;3.37;;;6.10;97.30;;;;;;5031509;28;20430;-80
2021/11/17 12:32:31;;;;;;;11.73;3.33;;;6.10;97.30;;;;;;5015594;28;20435;-81
2021/11/17 12:35:09;;;;;;;10.33;4.87;;;6.20;97.30;;;;;;5031939;28;20470;-80
2021/11/17 12:37:44;;;;;;;9.33;4.00;;;6.20;97.30;;;;;;5030658;28;20502;-81
2021/11/17 12:40:37;;;;;;;7.63;4.17;;;6.20;97.30;;;;;;5031179;28;20542;-81
2021/11/17 12:43:06;;;;;;;11.33;4.13;;;6.30;97.30;;;;;;5032169;28;20795;-81
2021/11/17 12:45:50;;;;;;;9.97;4.50;;;6.30;97.30;;;;;;5031694;28;20531;-81
2021/11/17 12:48:30;;;;;;;8.27;3.70;;;6.40;97.30;;;;;;5016096;28;20853;-80
2021/11/17 12:51:04;;;;;;;7.57;3.30;;;6.40;97.30;;;;;;5030761;28;20774;-80
2021/11/17 12:53:40;;;;;;;8.53;4.10;;;6.40;97.30;;;;;;5031166;28;20432;-83
2021/11/17 12:56:15;;;;;;;9.60;4.03;;;6.40;97.30;;;;;;5031466;28;20559;-80
2021/11/17 12:58:57;;;;;;;9.20;4.60;;;6.40;97.30;;;;;;5032403;28;20455;-83
2021/11/17 13:01:29;;;;;;;6.40;3.83;;;6.50;97.30;;;;;;5031477;28;20423;-81
2021/11/17 13:04:13;;;;;;;7.90;4.10;;;6.50;97.30;;;;;;5033133;28;20416;-83
2021/11/17 13:06:45;;;;;;;7.83;4.10;;;6.50;97.30;;;;;;5020114;28;20842;-83
2021/11/17 13:09:30;;;;;;;11.07;3.67;;;6.50;97.30;;;;;;5020547;28;20611;-80
2021/11/17 13:12:09;;;;;;;11.17;4.40;;;6.60;97.30;;;;;;5036365;28;20408;-81
2021/11/17 13:14:36;;;;;;;9.10;4.27;;;6.60;97.30;;;;;;5036573;28;20818;-81
2021/11/17 13:17:11;;;;;;;7.17;3.60;;;6.70;97.30;;;;;;5035961;28;20427;-83
2021/11/17 13:19:40;;;;;;;8.50;3.90;;;6.80;97.30;;;;;;5035619;28;20447;-80
2021/11/17 13:22:24;;;;;;;9.73;3.90;;;7.00;97.30;;;;;;5035418;28;20418;-82
2021/11/17 13:24:53;;;;;;;8.60;3.20;;;7.10;97.30;;;;;;5035528;28;20968;-81
2021/11/17 13:27:35;;;;;;;8.10;4.10;;;7.10;97.30;;;;;;5034522;28;20404;-80
2021/11/17 13:30:39;;;;;;;9.10;4.00;;;7.10;97.30;;;;;;5035767;28;20400;-80
2021/11/17 13:33:49;;;;;;;7.37;3.97;;;7.10;97.30;;;;;;4962760;28;20457;-81
2021/11/17 13:36:15;;;;;;;12.13;5.23;;;7.20;97.30;;;;;;4883163;29;20446;-80
2021/11/17 13:38:57;;;;;;;9.20;4.07;;;7.20;97.30;;;;;;5007402;28;20463;-81
2021/11/17 13:41:23;;;;;;;7.53;3.80;;;7.20;97.30;;;;;;5034548;28;20200;-81
2021/11/17 13:43:49;;;;;;;7.60;4.20;;;7.20;97.30;;;;;;5018543;28;20431;-81
2021/11/17 13:46:18;;;;;;;6.43;3.60;;;7.20;97.30;;;;;;5033613;28;20203;-81
2021/11/17 13:48:45;;;;;;;5.90;3.43;;;7.20;97.30;;;;;;5033454;28;20462;-80
2021/11/17 13:51:13;;;;;;;11.23;3.90;;;7.40;97.30;;;;;;5034184;28;20412;-80
2021/11/17 13:53:40;;;;;;;8.20;3.57;;;7.60;97.30;;;;;;5033710;28;20462;-81
2021/11/17 13:56:10;;;;;;;6.27;3.20;;;7.60;97.30;;;;;;5034504;28;20453;-80
2021/11/17 13:58:36;;;;;;;6.47;3.07;;;7.70;97.30;;;;;;5034347;28;20452;-81
2021/11/17 14:01:04;;;;;;;4.50;2.40;;;8.10;97.30;;;;;;5033721;28;20423;-81
2021/11/17 14:03:31;;;;;;;5.07;3.10;;;8.30;97.30;;;;;;5033275;28;20569;-80
2021/11/17 14:06:03;;;;;;;4.77;2.80;;;8.40;97.30;;;;;;5033079;28;20471;-80
2021/11/17 14:08:29;;;;;;;5.37;2.57;;;8.50;97.30;;;;;;5033042;28;20416;-80
2021/11/17 14:10:55;;;;;;;3.97;2.77;;;8.50;97.30;;;;;;5033002;28;20448;-81
2021/11/17 14:13:21;;;;;;;4.37;2.70;;;8.60;97.30;;;;;;5032306;28;20416;-80
2021/11/17 14:15:46;;;;;;;6.90;2.87;;;8.20;97.30;;;;;;5033380;28;20197;-81
2021/11/17 14:18:14;;;;;;;4.57;2.50;;;8.00;97.30;;;;;;5031980;28;20170;-81
2021/11/17 14:20:40;;;;;;;5.00;3.23;;;7.70;97.30;;;;;;5032075;28;20180;-81
2021/11/17 14:23:07;;;;;;;5.23;3.10;;;7.50;97.30;;;;;;5017944;28;20404;-82
2021/11/17 14:25:34;;;;;;;5.53;2.97;;;7.30;97.30;;;;;;5032654;28;20436;-81
2021/11/17 14:28:04;;;;;;;4.20;2.67;;;7.20;97.30;;;;;;5033142;28;20412;-81
2021/11/17 14:30:36;;;;;;;5.93;2.60;;;7.10;97.30;;;;;;5032861;28;20435;-82
2021/11/17 14:33:03;;;;;;;5.40;2.87;;;7.00;97.30;;;;;;5033099;28;20459;-79
2021/11/17 14:35:29;;;;;;;4.73;2.57;;;6.90;97.30;;;;;;5033008;28;20973;-81
2021/11/17 14:37:55;;;;;;;4.43;2.53;;;6.90;97.30;;;;;;5033271;28;20451;-81
2021/11/17 14:40:23;;;;;;;12.10;2.90;;;6.90;97.30;;;;;;5031698;28;20204;-81
2021/11/17 14:42:49;;;;;;;6.27;3.13;;;6.90;97.30;;;;;;5029456;28;20408;-82
2021/11/17 14:45:19;;;;;;;5.17;3.03;;;6.90;97.30;;;;;;5029167;28;20435;-82
2021/11/17 14:47:44;;;;;;;6.47;3.17;;;6.80;97.30;;;;;;5029582;28;20431;-82
2021/11/17 14:50:12;;;;;;;7.10;3.07;;;6.80;97.30;;;;;;5029881;28;20424;-82
2021/11/17 14:52:39;;;;;;;5.50;2.90;;;6.80;97.30;;;;;;5030527;28;20463;-82
2021/11/17 14:55:07;;;;;;;4.40;2.53;;;6.80;97.30;;;;;;5031726;28;20451;-82
2021/11/17 14:57:35;;;;;;;7.60;3.03;;;6.70;97.30;;;;;;5031256;28;20784;-82
2021/11/17 15:00:03;;;;;;;7.60;3.20;;;6.70;97.30;;;;;;5030947;28;20536;-82
2021/11/17 15:02:30;;;;;;;5.10;2.60;;;6.70;97.30;;;;;;5031421;28;20945;-83
2021/11/17 15:04:56;;;;;;;6.37;3.43;;;6.60;97.30;;;;;;5030786;28;20440;-81
2021/11/17 15:07:21;;;;;;;4.57;2.93;;;6.60;97.30;;;;;;5030923;28;20830;-82
2021/11/17 15:09:47;;;;;;;5.17;3.00;;;6.60;97.30;;;;;;5030695;28;20546;-82
2021/11/17 15:12:17;;;;;;;3.93;2.10;;;6.60;97.30;;;;;;5031126;28;20705;-83
2021/11/17 15:14:44;;;;;;;6.13;2.90;;;6.60;97.30;;;;;;5030245;28;20264;-82
2021/11/17 15:17:10;;;;;;;5.90;2.97;;;6.60;97.30;;;;;;5028602;28;20416;-83
2021/11/17 15:19:37;;;;;;;4.20;2.50;;;6.60;97.30;;;;;;5013317;28;20558;-81
2021/11/17 15:22:03;;;;;;;7.67;3.37;;;6.60;97.30;;;;;;5013820;28;20711;-82
2021/11/17 15:24:31;;;;;;;4.37;2.50;;;6.60;97.30;;;;;;5013619;28;20511;-82
2021/11/17 15:27:05;;;;;;;6.43;3.07;;;6.60;97.30;;;;;;5013143;28;20400;-81
2021/11/17 15:29:32;;;;;;;4.43;2.40;;;6.60;97.30;;;;;;5014214;28;20846;-81
2021/11/17 15:31:57;;;;;;;4.00;2.70;;;6.60;97.30;;;;;;5014151;28;20442;-81
2021/11/17 15:34:23;;;;;;;6.70;3.73;;;6.60;97.30;;;;;;5014262;28;20416;-81
2021/11/17 15:36:49;;;;;;;7.17;2.97;;;6.60;97.30;;;;;;5014788;28;20205;-82
2021/11/17 15:39:14;;;;;;;6.70;3.40;;;6.60;97.30;;;;;;5015129;28;20613;-83
2021/11/17 15:41:41;;;;;;;3.50;2.63;;;6.70;97.30;;;;;;5013729;28;20188;-82
2021/11/17 15:44:08;;;;;;;5.90;3.60;;;6.70;97.30;;;;;;5015015;28;20173;-82
2021/11/17 15:46:36;;;;;;;6.87;3.30;;;6.70;97.30;;;;;;5013384;28;20436;-82
2021/11/17 15:49:02;;;;;;;11.70;3.40;;;6.70;97.30;;;;;;5014380;28;20458;-82
2021/11/17 15:51:35;;;;;;;6.50;2.83;;;6.60;97.30;;;;;;5013888;28;20436;-81
2021/11/17 15:54:01;;;;;;;6.17;3.50;;;6.60;97.30;;;;;;5014063;28;20923;-82
2021/11/17 15:56:29;;;;;;;6.87;2.90;;;6.60;97.30;;;;;;5013983;28;20531;-81